createdAt,value
2019-02-15T00:02:11.854Z,102847.70
2019-02-15T00:04:43.406Z,102839.02
2019-02-15T00:07:14.882Z,102837.14
2019-02-15T00:09:46.285Z,102839.81
2019-02-15T00:12:17.745Z,102836.02
2019-02-15T00:14:49.871Z,102832.73
2019-02-15T00:17:39.006Z,102821.12
2019-02-15T00:20:15.174Z,102824.84
2019-02-15T00:22:46.646Z,102821.98
2019-02-15T00:25:18.047Z,102819.11
2019-02-15T00:27:49.499Z,102821.22
2019-02-15T00:30:21.004Z,102826.76
2019-02-15T00:32:52.649Z,102824.14
2019-02-15T00:35:24.135Z,102818.76
2019-02-15T00:37:55.662Z,102822.88
2019-02-15T00:40:27.112Z,102816.50
2019-02-15T00:42:58.557Z,102820.56
2019-02-15T00:45:32.177Z,102817.99
2019-02-15T00:48:07.184Z,102830.05
2019-02-15T00:50:57.526Z,102825.63
2019-02-15T00:53:49.380Z,102822.66
2019-02-15T00:56:42.747Z,102826.72
2019-02-15T00:59:29.674Z,102819.55
2019-02-15T01:02:28.981Z,102814.67
2019-02-15T01:05:19.330Z,102814.37
2019-02-15T01:08:16.759Z,102812.86
2019-02-15T01:11:12.947Z,102810.48
2019-02-15T01:13:44.440Z,102813.09
2019-02-15T01:16:15.864Z,102812.59
2019-02-15T01:18:47.327Z,102814.61
2019-02-15T01:21:18.797Z,102809.37
2019-02-15T01:23:50.281Z,102806.06
2019-02-15T01:26:37.952Z,102798.47
2019-02-15T01:29:46.914Z,102795.89
2019-02-15T01:32:37.191Z,102794.48
2019-02-15T01:35:45.987Z,102782.66
2019-02-15T01:38:34.877Z,102785.30
2019-02-15T01:41:17.676Z,102782.72
2019-02-15T01:44:07.975Z,102776.23
2019-02-15T01:46:58.617Z,102776.05
2019-02-15T01:49:30.112Z,102778.45
2019-02-15T01:52:01.575Z,102773.20
2019-02-15T01:54:33.002Z,102768.97
2019-02-15T01:57:04.464Z,102771.52
2019-02-15T01:59:36.954Z,102775.42
2019-02-15T02:02:08.445Z,102773.22
2019-02-15T02:04:40.044Z,102771.11
2019-02-15T02:07:11.578Z,102768.53
2019-02-15T02:09:44.055Z,102763.00
2019-02-15T02:12:16.548Z,102754.59
2019-02-15T02:14:48.096Z,102764.42
2019-02-15T02:17:19.464Z,102763.02
2019-02-15T02:19:50.937Z,102761.94
2019-02-15T02:22:22.538Z,102756.84
2019-02-15T02:24:54.132Z,102748.70
2019-02-15T02:27:26.457Z,102745.92
2019-02-15T02:29:57.862Z,102747.33
2019-02-15T02:32:29.422Z,102752.84
2019-02-15T02:35:01.745Z,102745.43
2019-02-15T02:37:33.555Z,102738.01
2019-02-15T02:40:05.404Z,102736.13
2019-02-15T02:42:36.951Z,102739.83
2019-02-15T02:45:08.708Z,102732.63
2019-02-15T02:47:40.137Z,102735.25
2019-02-15T02:50:11.606Z,102734.93
2019-02-15T02:52:44.139Z,102727.55
2019-02-15T02:55:15.562Z,102731.24
2019-02-15T02:57:47.033Z,102723.54
2019-02-15T03:00:18.456Z,102719.92
2019-02-15T03:02:49.960Z,102725.42
2019-02-15T03:05:21.870Z,102726.44
2019-02-15T03:07:53.370Z,102728.87
2019-02-15T03:10:25.844Z,102732.95
2019-02-15T03:12:57.229Z,102735.17
2019-02-15T03:15:28.678Z,102734.77
2019-02-15T03:18:00.567Z,102733.68
2019-02-15T03:20:31.962Z,102727.24
2019-02-15T03:23:03.468Z,102732.16
2019-02-15T03:25:34.874Z,102728.76
2019-02-15T03:28:06.266Z,102731.97
2019-02-15T03:30:37.864Z,102731.97
2019-02-15T03:33:09.351Z,102734.86
2019-02-15T03:35:53.673Z,102730.56
2019-02-15T03:38:34.084Z,102733.96
2019-02-15T03:41:08.169Z,102734.97
2019-02-15T03:43:39.696Z,102748.58
2019-02-15T03:46:11.157Z,102741.09
2019-02-15T03:48:42.655Z,102738.27
2019-02-15T03:51:14.066Z,102739.58
2019-02-15T03:53:45.653Z,102740.87
2019-02-15T03:56:17.061Z,102729.87
2019-02-15T03:58:48.541Z,102733.67
2019-02-15T04:01:19.920Z,102738.55
2019-02-15T04:03:51.816Z,102741.98
2019-02-15T04:06:23.734Z,102740.34
2019-02-15T04:08:55.138Z,102744.86
2019-02-15T04:11:26.526Z,102750.45
2019-02-15T04:13:57.927Z,102746.84
2019-02-15T04:16:30.413Z,102751.25
2019-02-15T04:19:01.897Z,102751.45
2019-02-15T04:21:33.269Z,102755.53
2019-02-15T04:24:04.789Z,102755.25
2019-02-15T04:26:36.172Z,102759.05
2019-02-15T04:29:07.585Z,102755.95
2019-02-15T04:31:38.984Z,102751.63
2019-02-15T04:34:10.485Z,102746.59
2019-02-15T04:36:41.993Z,102750.59
2019-02-15T04:39:13.387Z,102743.78
2019-02-15T04:41:44.945Z,102750.69
2019-02-15T04:44:17.112Z,102749.05
2019-02-15T04:46:50.060Z,102751.31
2019-02-15T04:49:21.721Z,102750.70
2019-02-15T04:51:53.201Z,102750.66
2019-02-15T04:54:24.693Z,102739.52
2019-02-15T04:56:56.193Z,102741.73
2019-02-15T04:59:28.658Z,102737.12
2019-02-15T05:02:00.108Z,102737.77
2019-02-15T05:04:31.709Z,102731.03
2019-02-15T05:07:03.117Z,102732.41
2019-02-15T05:09:34.528Z,102734.38
2019-02-15T05:12:06.011Z,102736.74
2019-02-15T05:14:37.418Z,102732.41
2019-02-15T05:17:08.884Z,102732.02
2019-02-15T05:19:40.250Z,102735.48
2019-02-15T05:22:11.638Z,102735.09
2019-02-15T05:24:43.081Z,102730.23
2019-02-15T05:27:14.497Z,102732.41
2019-02-15T05:29:45.906Z,102736.82
2019-02-15T05:32:17.395Z,102728.94
2019-02-15T05:34:48.798Z,102730.72
2019-02-15T05:37:20.374Z,102733.05
2019-02-15T05:39:51.843Z,102741.94
2019-02-15T05:42:23.236Z,102743.24
2019-02-15T05:45:03.385Z,102737.96
2019-02-15T05:47:27.981Z,102734.73
2019-02-15T05:49:59.794Z,102732.92
2019-02-15T05:52:31.257Z,102733.83
2019-02-15T05:55:02.810Z,102731.34
2019-02-15T05:57:34.251Z,102721.63
2019-02-15T06:00:06.740Z,102715.44
2019-02-15T06:02:38.245Z,102724.69
2019-02-15T06:05:09.744Z,102722.68
2019-02-15T06:07:41.223Z,102718.08
2019-02-15T06:10:12.713Z,102715.00
2019-02-15T06:12:44.295Z,102718.51
2019-02-15T06:15:16.712Z,102725.09
2019-02-15T06:17:48.374Z,102716.50
2019-02-15T06:20:19.770Z,102715.09
2019-02-15T06:22:51.217Z,102717.69
2019-02-15T06:25:22.714Z,102724.02
2019-02-15T06:27:54.270Z,102724.62
2019-02-15T06:30:25.812Z,102731.47
2019-02-15T06:32:57.623Z,102728.47
2019-02-15T06:35:29.116Z,102734.38
2019-02-15T06:38:00.506Z,102735.01
2019-02-15T06:40:32.090Z,102739.81
2019-02-15T06:43:03.532Z,102753.00
2019-02-15T06:45:34.938Z,102751.83
2019-02-15T06:48:06.431Z,102749.54
2019-02-15T06:50:37.832Z,102740.33
2019-02-15T06:53:10.058Z,102748.86
2019-02-15T06:55:41.706Z,102745.67
2019-02-15T06:58:13.088Z,102751.19
2019-02-15T07:01:09.817Z,102753.78
2019-02-15T07:04:06.274Z,102755.59
2019-02-15T07:06:37.704Z,102756.78
2019-02-15T07:09:09.108Z,102753.51
2019-02-15T07:11:40.568Z,102749.09
2019-02-15T07:14:11.937Z,102751.54
2019-02-15T07:16:43.370Z,102741.02
2019-02-15T07:19:14.806Z,102744.95
2019-02-15T07:21:46.197Z,102747.98
2019-02-15T07:24:17.980Z,102747.10
2019-02-15T07:26:49.410Z,102746.98
2019-02-15T07:29:20.841Z,102740.88
2019-02-15T07:31:52.221Z,102749.11
2019-02-15T07:34:23.631Z,102761.86
2019-02-15T07:36:55.169Z,102766.88
2019-02-15T07:39:26.619Z,102764.53
2019-02-15T07:41:58.170Z,102765.85
2019-02-15T07:44:29.739Z,102768.95
2019-02-15T07:47:01.186Z,102763.97
2019-02-15T07:49:32.627Z,102763.30
2019-02-15T07:52:04.034Z,102764.91
2019-02-15T07:54:35.598Z,102766.63
2019-02-15T07:57:06.985Z,102758.60
2019-02-15T07:59:38.347Z,102753.39
2019-02-15T08:02:09.803Z,102758.31
2019-02-15T08:04:41.210Z,102758.83
2019-02-15T08:07:12.775Z,102754.02
2019-02-15T08:09:44.149Z,102753.80
2019-02-15T08:12:15.567Z,102756.61
2019-02-15T08:14:47.050Z,102763.80
2019-02-15T08:17:19.621Z,102765.61
2019-02-15T08:19:51.099Z,102767.29
2019-02-15T08:22:22.856Z,102761.33
2019-02-15T08:24:54.268Z,102756.49
2019-02-15T08:27:25.930Z,102765.92
2019-02-15T08:29:59.174Z,102773.62
2019-02-15T08:32:30.777Z,102775.45
2019-02-15T08:35:02.263Z,102766.46
2019-02-15T08:37:35.243Z,102762.55
2019-02-15T08:40:07.562Z,102757.41
2019-02-15T08:42:40.503Z,102754.76
2019-02-15T08:45:13.363Z,102756.94
2019-02-15T08:47:44.795Z,102751.91
2019-02-15T08:50:16.324Z,102752.79
2019-02-15T08:52:47.769Z,102739.87
2019-02-15T08:55:19.226Z,102743.53
2019-02-15T08:57:50.791Z,102747.72
2019-02-15T09:00:22.252Z,102741.11
2019-02-15T09:02:53.695Z,102748.47
2019-02-15T09:05:25.168Z,102740.80
2019-02-15T09:07:56.661Z,102746.41
2019-02-15T09:10:28.062Z,102747.41
2019-02-15T09:12:59.799Z,102742.39
2019-02-15T09:15:31.160Z,102748.13
2019-02-15T09:18:02.618Z,102749.11
2019-02-15T09:20:34.150Z,102750.95
2019-02-15T09:23:05.573Z,102756.14
2019-02-15T09:25:37.017Z,102753.64
2019-02-15T09:28:16.213Z,102759.09
2019-02-15T09:30:51.576Z,102763.70
2019-02-15T09:33:22.959Z,102765.80
2019-02-15T09:35:54.497Z,102767.25
2019-02-15T09:38:25.955Z,102770.66
2019-02-15T09:40:57.323Z,102777.64
2019-02-15T09:43:28.762Z,102776.72
2019-02-15T09:46:00.362Z,102783.13
2019-02-15T09:48:31.847Z,102790.33
2019-02-15T09:51:03.231Z,102792.65
2019-02-15T09:53:35.708Z,102792.30
2019-02-15T09:56:07.146Z,102786.47
2019-02-15T09:58:38.580Z,102787.69
2019-02-15T10:01:10.232Z,102783.86
2019-02-15T10:03:41.722Z,102784.53
2019-02-15T10:06:13.215Z,102780.16
2019-02-15T10:08:44.741Z,102775.80
2019-02-15T10:11:16.392Z,102775.84
2019-02-15T10:13:48.091Z,102787.68
2019-02-15T10:16:28.220Z,102789.48
2019-02-15T10:18:52.614Z,102785.95
2019-02-15T10:21:24.063Z,102782.98
2019-02-15T10:23:55.502Z,102789.55
2019-02-15T10:26:26.912Z,102782.07
2019-02-15T10:28:58.359Z,102783.72
2019-02-15T10:31:30.138Z,102785.55
2019-02-15T10:34:01.496Z,102778.78
2019-02-15T10:36:33.125Z,102779.64
2019-02-15T10:39:05.910Z,102782.86
2019-02-15T10:41:37.603Z,102772.00
2019-02-15T10:44:08.987Z,102774.82
2019-02-15T10:46:42.662Z,102770.55
2019-02-15T10:49:14.107Z,102773.95
2019-02-15T10:51:46.417Z,102783.23
2019-02-15T10:54:17.869Z,102782.86
2019-02-15T10:56:49.244Z,102777.98
2019-02-15T10:59:20.722Z,102772.16
2019-02-15T11:01:52.278Z,102777.16
2019-02-15T11:04:23.842Z,102769.95
2019-02-15T11:06:55.294Z,102772.91
2019-02-15T11:09:26.837Z,102772.05
2019-02-15T11:11:58.227Z,102768.23
2019-02-15T11:14:29.728Z,102770.59
2019-02-15T11:17:03.061Z,102772.00
2019-02-15T11:19:34.276Z,102774.70
2019-02-15T11:22:05.800Z,102770.05
2019-02-15T11:24:37.382Z,102773.33
2019-02-15T11:27:08.942Z,102773.83
2019-02-15T11:29:42.309Z,102784.51
2019-02-15T11:32:13.875Z,102780.42
2019-02-15T11:34:45.550Z,102780.66
2019-02-15T11:37:16.927Z,102786.11
2019-02-15T11:39:48.403Z,102783.70
2019-02-15T11:42:19.855Z,102783.16
2019-02-15T11:44:51.329Z,102770.51
2019-02-15T11:47:22.785Z,102766.55
2019-02-15T11:49:54.233Z,102770.78
2019-02-15T11:52:25.655Z,102763.62
2019-02-15T11:54:57.209Z,102770.11
2019-02-15T11:57:28.704Z,102771.02
2019-02-15T12:00:00.727Z,102775.10
2019-02-15T12:02:32.445Z,102777.38
2019-02-15T12:05:04.101Z,102770.95
2019-02-15T12:07:35.817Z,102773.69
2019-02-15T12:10:07.458Z,102769.56
2019-02-15T12:12:39.158Z,102768.97
2019-02-15T12:15:10.743Z,102767.90
2019-02-15T12:17:42.208Z,102761.70
2019-02-15T12:20:13.768Z,102773.98
2019-02-15T12:22:45.381Z,102770.33
2019-02-15T12:25:16.989Z,102774.75
2019-02-15T12:27:48.608Z,102770.38
2019-02-15T12:30:20.165Z,102777.98
2019-02-15T12:32:51.655Z,102771.20
2019-02-15T12:35:23.108Z,102775.68
2019-02-15T12:37:54.636Z,102769.50
2019-02-15T12:40:26.175Z,102767.78
2019-02-15T12:42:57.745Z,102770.95
2019-02-15T12:45:29.425Z,102768.94
2019-02-15T12:48:00.886Z,102767.16
2019-02-15T12:50:32.438Z,102763.63
2019-02-15T12:53:03.871Z,102760.83
2019-02-15T12:55:36.414Z,102753.64
2019-02-15T12:58:08.092Z,102754.88
2019-02-15T13:00:42.407Z,102754.16
2019-02-15T13:03:13.843Z,102748.77
2019-02-15T13:05:45.226Z,102747.71
2019-02-15T13:08:16.724Z,102750.97
2019-02-15T13:10:48.596Z,102744.34
2019-02-15T13:13:20.048Z,102745.75
2019-02-15T13:15:53.034Z,102742.56
2019-02-15T13:18:24.391Z,102742.75
2019-02-15T13:20:55.832Z,102733.17
2019-02-15T13:23:27.894Z,102737.34
2019-02-15T13:26:08.228Z,102732.33
2019-02-15T13:28:32.596Z,102724.66
2019-02-15T13:31:03.997Z,102714.67
2019-02-15T13:33:35.425Z,102719.01
2019-02-15T13:36:06.937Z,102716.94
2019-02-15T13:38:38.439Z,102711.81
2019-02-15T13:41:10.240Z,102710.44
2019-02-15T13:43:44.010Z,102703.30
2019-02-15T13:46:15.499Z,102701.33
2019-02-15T13:48:46.875Z,102711.09
2019-02-15T13:51:18.299Z,102704.97
2019-02-15T13:53:49.696Z,102704.55
2019-02-15T13:56:21.139Z,102704.98
2019-02-15T13:58:52.599Z,102707.33
2019-02-15T14:01:24.379Z,102705.83
2019-02-15T14:03:55.800Z,102698.95
2019-02-15T14:06:27.348Z,102697.95
2019-02-15T14:08:58.742Z,102695.70
2019-02-15T14:11:30.243Z,102693.34
2019-02-15T14:14:01.733Z,102689.99
2019-02-15T14:16:33.250Z,102693.34
2019-02-15T14:19:04.808Z,102695.55
2019-02-15T14:21:44.156Z,102687.28
2019-02-15T14:24:09.480Z,102690.40
2019-02-15T14:26:40.979Z,102682.02
2019-02-15T14:29:12.410Z,102674.22
2019-02-15T14:31:43.927Z,102685.25
2019-02-15T14:34:15.443Z,102675.44
2019-02-15T14:36:46.903Z,102677.78
2019-02-15T14:39:18.470Z,102673.51
2019-02-15T14:41:49.994Z,102673.32
2019-02-15T14:44:22.582Z,102666.91
2019-02-15T14:46:54.043Z,102669.01
2019-02-15T14:49:25.490Z,102671.22
2019-02-15T14:51:57.008Z,102672.66
2019-02-15T14:54:28.451Z,102674.58
2019-02-15T14:56:59.892Z,102671.25
2019-02-15T14:59:43.151Z,102668.17
2019-02-15T15:02:17.583Z,102669.99
2019-02-15T15:04:49.086Z,102664.03
2019-02-15T15:07:20.766Z,102664.39
2019-02-15T15:09:53.110Z,102659.23
2019-02-15T15:12:24.731Z,102660.31
2019-02-15T15:14:59.467Z,102658.32
2019-02-15T15:17:31.314Z,102666.39
2019-02-15T15:20:02.876Z,102663.55
2019-02-15T15:22:36.949Z,102666.73
2019-02-15T15:25:14.828Z,102666.38
2019-02-15T15:27:46.679Z,102657.56
2019-02-15T15:30:18.408Z,102661.78
2019-02-15T15:32:50.067Z,102663.34
2019-02-15T15:35:22.758Z,102661.84
2019-02-15T15:37:54.230Z,102664.06
2019-02-15T15:40:26.075Z,102663.25
2019-02-15T15:42:57.687Z,102665.86
2019-02-15T15:45:29.122Z,102654.91
2019-02-15T15:48:00.777Z,102650.74
2019-02-15T15:50:32.534Z,102645.61
2019-02-15T15:53:04.319Z,102650.25
2019-02-15T15:55:36.036Z,102646.89
2019-02-15T15:58:09.152Z,102646.15
2019-02-15T16:00:44.621Z,102648.92
2019-02-15T16:03:19.454Z,102652.59
2019-02-15T16:06:23.866Z,102647.12
2019-02-15T16:08:49.125Z,102642.88
2019-02-15T16:11:28.909Z,102638.22
2019-02-15T16:14:16.173Z,102639.53
2019-02-15T16:16:59.594Z,102643.98
2019-02-15T16:19:40.384Z,102648.70
2019-02-15T16:22:12.730Z,102648.77
2019-02-15T16:24:46.071Z,102648.91
2019-02-15T16:27:18.809Z,102647.02
2019-02-15T16:29:50.338Z,102642.54
2019-02-15T16:32:31.133Z,102645.71
2019-02-15T16:35:03.214Z,102643.75
2019-02-15T16:38:37.649Z,102643.66
2019-02-15T16:40:40.528Z,102642.84
2019-02-15T16:43:12.390Z,102645.82
2019-02-15T16:45:45.942Z,102651.09
2019-02-15T16:48:19.287Z,102649.84
2019-02-15T16:50:59.294Z,102657.17
2019-02-15T16:53:32.366Z,102656.34
2019-02-15T16:56:09.745Z,102653.55
2019-02-15T16:58:43.131Z,102654.99
2019-02-15T17:01:15.173Z,102654.94
2019-02-15T17:03:56.443Z,102655.07
2019-02-15T17:06:29.945Z,102654.57
2019-02-15T17:09:09.571Z,102654.07
2019-02-15T17:11:41.922Z,102653.44
2019-02-15T17:14:24.942Z,102653.88
2019-02-15T17:20:14.601Z,102644.48
2019-02-15T17:22:48.172Z,102645.59
2019-02-15T17:28:42.596Z,102649.89
2019-02-15T17:31:28.773Z,102650.80
2019-02-15T17:34:14.513Z,102652.63
2019-02-15T17:36:55.227Z,102649.95
2019-02-15T17:39:23.500Z,102646.17
2019-02-15T17:41:55.924Z,102641.84
2019-02-15T17:44:32.449Z,102651.80
2019-02-15T17:47:04.533Z,102644.89
2019-02-15T17:49:47.078Z,102640.08
2019-02-15T17:52:18.944Z,102637.47
2019-02-15T17:54:53.974Z,102640.37
2019-02-15T17:57:26.124Z,102641.59
2019-02-15T17:59:59.033Z,102632.70
2019-02-15T18:02:41.843Z,102635.32
2019-02-15T18:05:21.849Z,102634.54
2019-02-15T18:07:54.054Z,102628.95
2019-02-15T18:10:25.716Z,102634.95
2019-02-15T18:12:57.374Z,102631.84
2019-02-15T18:15:29.311Z,102626.03
2019-02-15T18:18:02.930Z,102630.16
2019-02-15T18:20:34.753Z,102633.06
2019-02-15T18:23:06.558Z,102627.78
2019-02-15T18:25:38.211Z,102632.09
2019-02-15T18:28:13.152Z,102626.14
2019-02-15T18:30:47.219Z,102628.47
2019-02-15T18:33:18.837Z,102628.66
2019-02-15T18:35:51.678Z,102621.47
2019-02-15T18:38:23.586Z,102616.16
2019-02-15T18:40:56.598Z,102623.00
2019-02-15T18:43:28.320Z,102623.69
2019-02-15T18:46:08.189Z,102622.28
2019-02-15T18:48:39.812Z,102623.01
2019-02-15T18:51:11.541Z,102627.02
2019-02-15T18:53:50.685Z,102630.61
2019-02-15T18:56:27.082Z,102629.81
2019-02-15T18:58:58.564Z,102632.73
2019-02-15T19:01:30.208Z,102630.52
2019-02-15T19:04:02.774Z,102634.58
2019-02-15T19:06:35.751Z,102624.69
2019-02-15T19:09:08.040Z,102630.78
2019-02-15T19:11:39.896Z,102631.38
2019-02-15T19:14:11.593Z,102639.06
2019-02-15T19:16:43.221Z,102645.55
2019-02-15T19:19:14.996Z,102641.62
2019-02-15T19:21:47.669Z,102642.41
2019-02-15T19:24:19.881Z,102635.01
2019-02-15T19:26:51.717Z,102640.53
2019-02-15T19:29:23.276Z,102632.59
2019-02-15T19:31:56.170Z,102635.00
2019-02-15T19:34:34.719Z,102634.56
2019-02-15T19:37:06.583Z,102632.31
2019-02-15T19:39:39.475Z,102629.00
2019-02-15T19:42:17.856Z,102628.32
2019-02-15T19:44:49.712Z,102625.61
2019-02-15T19:47:21.337Z,102626.69
2019-02-15T19:49:53.023Z,102627.77
2019-02-15T19:52:24.884Z,102627.37
2019-02-15T19:54:59.006Z,102621.98
2019-02-15T19:57:30.852Z,102634.63
2019-02-15T20:00:10.837Z,102636.64
2019-02-15T20:02:44.819Z,102637.71
2019-02-15T20:05:18.911Z,102639.02
2019-02-15T20:07:50.811Z,102636.38
2019-02-15T20:10:22.577Z,102637.53
2019-02-15T20:12:54.241Z,102635.92
2019-02-15T20:15:26.717Z,102637.58
2019-02-15T20:17:58.468Z,102634.55
2019-02-15T20:20:30.227Z,102626.84
2019-02-15T20:23:04.681Z,102627.55
2019-02-15T20:25:37.484Z,102634.01
2019-02-15T20:28:16.588Z,102637.27
2019-02-15T20:30:48.461Z,102629.39
2019-02-15T20:33:21.431Z,102624.20
2019-02-15T20:35:52.955Z,102628.62
2019-02-15T20:38:24.783Z,102627.22
2019-02-15T20:40:56.277Z,102630.25
2019-02-15T20:43:27.916Z,102627.54
2019-02-15T20:45:59.410Z,102625.29
2019-02-15T20:48:30.944Z,102632.41
2019-02-15T20:51:02.367Z,102623.88
2019-02-15T20:53:33.736Z,102621.36
2019-02-15T20:56:05.269Z,102621.20
2019-02-15T20:58:36.852Z,102621.02
2019-02-15T21:01:08.481Z,102623.22
2019-02-15T21:03:39.958Z,102619.56
2019-02-15T21:06:11.386Z,102612.84
2019-02-15T21:08:42.804Z,102617.24
2019-02-15T21:11:14.382Z,102611.53
2019-02-15T21:13:45.952Z,102610.36
2019-02-15T21:16:17.535Z,102613.47
2019-02-15T21:18:48.948Z,102612.56
2019-02-15T21:21:20.345Z,102611.45
2019-02-15T21:23:51.934Z,102606.81
2019-02-15T21:26:23.558Z,102608.50
2019-02-15T21:28:56.113Z,102606.54
2019-02-15T21:31:27.713Z,102606.30
2019-02-15T21:33:59.181Z,102609.56
2019-02-15T21:36:31.070Z,102613.32
2019-02-15T21:39:03.151Z,102617.70
2019-02-15T21:41:36.749Z,102617.91
2019-02-15T21:44:08.949Z,102613.91
2019-02-15T21:46:40.721Z,102616.00
2019-02-15T21:49:12.490Z,102620.75
2019-02-15T21:51:44.189Z,102612.39
2019-02-15T21:54:16.012Z,102612.23
2019-02-15T21:56:47.784Z,102611.54
2019-02-15T21:59:19.463Z,102611.40
2019-02-15T22:01:54.243Z,102613.27
2019-02-15T22:04:25.841Z,102607.12
2019-02-15T22:06:57.486Z,102608.81
2019-02-15T22:09:28.985Z,102595.53
2019-02-15T22:12:00.514Z,102599.34
2019-02-15T22:14:32.039Z,102593.39
2019-02-15T22:17:03.571Z,102593.78
2019-02-15T22:19:35.119Z,102595.59
2019-02-15T22:22:06.844Z,102593.75
2019-02-15T22:24:38.549Z,102597.58
2019-02-15T22:27:10.282Z,102598.61
2019-02-15T22:29:41.733Z,102592.84
2019-02-15T22:32:13.289Z,102595.11
2019-02-15T22:34:44.742Z,102598.61
2019-02-15T22:37:16.215Z,102596.02
2019-02-15T22:39:47.618Z,102586.25
2019-02-15T22:42:19.145Z,102587.35
2019-02-15T22:44:50.513Z,102586.96
2019-02-15T22:47:21.969Z,102586.01
2019-02-15T22:49:53.424Z,102584.95
2019-02-15T22:52:26.409Z,102581.84
2019-02-15T22:54:57.803Z,102574.28
2019-02-15T22:57:29.232Z,102583.52
2019-02-15T23:00:01.386Z,102577.84
2019-02-15T23:02:35.912Z,102573.23
2019-02-15T23:05:07.512Z,102572.53
2019-02-15T23:07:39.025Z,102581.54
2019-02-15T23:10:10.576Z,102583.02
2019-02-15T23:12:42.093Z,102582.48
2019-02-15T23:15:13.689Z,102580.55
2019-02-15T23:17:45.159Z,102584.56
2019-02-15T23:20:16.755Z,102582.42
2019-02-15T23:22:48.277Z,102589.81
2019-02-15T23:25:19.731Z,102578.98
2019-02-15T23:27:51.286Z,102574.73
2019-02-15T23:30:23.782Z,102574.39
2019-02-15T23:32:55.201Z,102574.97
2019-02-15T23:35:26.977Z,102572.97
2019-02-15T23:37:58.814Z,102577.34
2019-02-15T23:40:30.336Z,102567.07
2019-02-15T23:43:01.935Z,102575.02
2019-02-15T23:45:33.379Z,102567.64
2019-02-15T23:48:04.907Z,102574.89
2019-02-15T23:50:36.399Z,102563.36
2019-02-15T23:53:08.020Z,102564.59
2019-02-15T23:55:39.404Z,102558.09
2019-02-15T23:58:10.975Z,102560.50
